Time;durP1;ratioP1;P1;durP2;ratioP2;P2;SDS_P1;SDS_P2;PMS_P1;PMS_P2;Temp;Humidity;BMP_temperature;BMP_pressure;BME280_temperature;BME280_humidity;BME280_pressure;Samples;Min_cycle;Max_cycle;Signal;HPM_P1;HPM_P2
2023/08/20 00:00:36;;;;;;;24.20;4.80;;;21.20;99.90;;;;;;7283009;19;20607;-76
2023/08/20 00:03:12;;;;;;;13.77;3.70;;;21.10;99.90;;;;;;7280477;19;20194;-76
2023/08/20 00:05:39;;;;;;;19.10;4.13;;;20.90;99.90;;;;;;7281899;19;20191;-75
2023/08/20 00:08:05;;;;;;;16.90;4.27;;;20.90;99.90;;;;;;7282258;19;20183;-76
2023/08/20 00:10:31;;;;;;;16.37;3.53;;;20.80;99.90;;;;;;7281598;19;20603;-75
2023/08/20 00:12:57;;;;;;;15.73;3.63;;;20.70;99.90;;;;;;7280977;19;20187;-76
2023/08/20 00:15:26;;;;;;;19.73;3.73;;;20.80;99.90;;;;;;7281419;19;20188;-76
2023/08/20 00:17:53;;;;;;;18.27;3.90;;;20.70;99.90;;;;;;7280815;19;20195;-76
2023/08/20 00:20:19;;;;;;;15.70;3.60;;;20.70;99.90;;;;;;7302013;19;20193;-75
2023/08/20 00:22:46;;;;;;;13.47;3.40;;;20.50;99.90;;;;;;7280882;19;20198;-76
2023/08/20 00:25:16;;;;;;;16.37;4.07;;;20.40;99.90;;;;;;7281337;19;20275;-76
2023/08/20 00:27:43;;;;;;;17.00;3.50;;;20.40;99.90;;;;;;7281216;19;20383;-77
2023/08/20 00:30:10;;;;;;;17.93;3.50;;;20.30;99.90;;;;;;7278929;19;20195;-75
2023/08/20 00:32:36;;;;;;;19.57;3.40;;;20.40;99.90;;;;;;7282215;19;20261;-76
2023/08/20 00:35:03;;;;;;;15.17;3.27;;;20.50;99.90;;;;;;7279430;19;20196;-76
2023/08/20 00:37:29;;;;;;;13.53;3.27;;;20.60;99.90;;;;;;7279433;19;20687;-76
2023/08/20 00:39:55;;;;;;;12.40;3.00;;;20.60;99.90;;;;;;7279467;19;20809;-75
2023/08/20 00:42:21;;;;;;;12.03;3.47;;;20.70;99.90;;;;;;7294245;19;20192;-76
2023/08/20 00:44:47;;;;;;;19.10;3.90;;;20.80;99.90;;;;;;7295628;19;20250;-76
2023/08/20 00:47:18;;;;;;;18.17;3.40;;;20.80;99.90;;;;;;7281207;19;20799;-75
2023/08/20 00:49:45;;;;;;;15.23;3.60;;;20.90;99.90;;;;;;7279604;19;20548;-76
2023/08/20 00:52:13;;;;;;;13.03;3.60;;;21.00;99.90;;;;;;7281782;19;20671;-76
2023/08/20 00:54:45;;;;;;;16.17;3.30;;;21.00;99.90;;;;;;7280623;19;20199;-75
2023/08/20 00:57:14;;;;;;;13.23;3.23;;;21.10;99.90;;;;;;7280407;19;20211;-76
2023/08/20 00:59:41;;;;;;;17.50;3.67;;;21.10;99.90;;;;;;7279044;19;20200;-76
2023/08/20 01:02:07;;;;;;;16.00;3.50;;;21.20;99.90;;;;;;7280273;19;20956;-76
2023/08/20 01:04:34;;;;;;;15.93;3.20;;;21.20;99.90;;;;;;7278665;19;20206;-76
2023/08/20 01:07:08;;;;;;;18.83;3.37;;;21.10;99.90;;;;;;7281664;19;20310;-76
2023/08/20 01:10:01;;;;;;;14.87;3.33;;;21.00;99.90;;;;;;7278375;19;20196;-76
2023/08/20 01:12:29;;;;;;;14.67;3.53;;;21.00;99.90;;;;;;7177718;19;2005177;-76
2023/08/20 01:14:54;;;;;;;14.70;2.97;;;20.90;99.90;;;;;;7279675;19;20186;-76
2023/08/20 01:17:20;;;;;;;14.80;2.97;;;20.90;99.90;;;;;;7300119;19;20320;-76
2023/08/20 01:19:46;;;;;;;12.60;3.20;;;20.90;99.90;;;;;;7279464;19;20184;-77
2023/08/20 01:22:47;;;;;;;12.00;3.10;;;21.00;99.90;;;;;;7279170;19;20189;-77
2023/08/20 01:25:50;;;;;;;12.73;3.03;;;21.00;99.90;;;;;;7186573;19;2006206;-76
2023/08/20 01:28:29;;;;;;;16.83;3.53;;;21.00;99.90;;;;;;7177036;19;2004730;-76
2023/08/20 01:31:00;;;;;;;15.77;3.40;;;21.10;99.90;;;;;;7256987;19;20216;-76
2023/08/20 01:33:27;;;;;;;12.60;3.23;;;21.20;99.90;;;;;;7278928;19;20214;-76
2023/08/20 01:35:54;;;;;;;14.47;3.30;;;21.30;99.90;;;;;;7278657;19;20220;-76
2023/08/20 01:38:20;;;;;;;16.20;3.27;;;21.30;99.90;;;;;;7300754;19;20199;-76
2023/08/20 01:40:47;;;;;;;15.73;3.60;;;21.30;99.90;;;;;;7279346;19;20195;-76
2023/08/20 01:43:15;;;;;;;14.17;3.47;;;21.30;99.90;;;;;;7276674;19;20188;-77
2023/08/20 01:45:41;;;;;;;14.00;3.57;;;21.30;99.90;;;;;;7279683;19;21018;-77
2023/08/20 01:48:07;;;;;;;13.63;3.73;;;21.20;99.90;;;;;;7286340;19;20206;-75
2023/08/20 01:50:35;;;;;;;13.20;3.00;;;21.10;99.90;;;;;;7281316;19;20604;-76
2023/08/20 01:53:02;;;;;;;12.63;3.10;;;21.00;99.90;;;;;;7278944;19;20289;-76
2023/08/20 01:55:29;;;;;;;20.37;3.70;;;20.90;99.90;;;;;;7279003;19;20246;-76
2023/08/20 01:57:54;;;;;;;16.40;3.60;;;20.80;99.90;;;;;;7277827;19;20661;-76
2023/08/20 02:00:20;;;;;;;20.50;4.53;;;20.70;99.90;;;;;;7300928;19;20608;-76
2023/08/20 02:02:46;;;;;;;17.23;3.63;;;20.70;99.90;;;;;;7277092;19;20741;-76
2023/08/20 02:05:12;;;;;;;17.10;3.33;;;20.80;99.90;;;;;;7278723;19;20215;-76
2023/08/20 02:07:38;;;;;;;14.63;3.70;;;20.70;99.90;;;;;;7277746;19;20237;-76
2023/08/20 02:10:04;;;;;;;15.50;3.90;;;20.60;99.90;;;;;;7278244;19;20204;-76
2023/08/20 02:12:30;;;;;;;16.80;3.53;;;20.60;99.90;;;;;;7278033;19;20187;-75
2023/08/20 02:14:56;;;;;;;14.33;3.30;;;20.50;99.90;;;;;;7284753;19;20191;-76
2023/08/20 02:17:23;;;;;;;17.00;3.40;;;20.40;99.90;;;;;;7284249;19;20207;-76
2023/08/20 02:19:49;;;;;;;17.60;3.67;;;20.30;99.90;;;;;;7305830;19;20190;-76
2023/08/20 02:22:15;;;;;;;14.70;3.60;;;20.20;99.90;;;;;;7285375;19;20268;-76
2023/08/20 02:24:40;;;;;;;17.40;3.67;;;20.10;99.90;;;;;;7285339;19;20199;-76
2023/08/20 02:27:07;;;;;;;16.07;3.43;;;20.00;99.90;;;;;;7284828;19;20660;-76
2023/08/20 02:29:33;;;;;;;18.40;3.67;;;19.90;99.90;;;;;;7283523;19;20210;-76
2023/08/20 02:31:59;;;;;;;12.00;3.53;;;19.60;99.90;;;;;;7284965;19;20212;-75
2023/08/20 02:34:24;;;;;;;17.50;3.33;;;19.50;99.90;;;;;;7284823;19;20190;-75
2023/08/20 02:36:50;;;;;;;10.13;2.93;;;19.40;99.90;;;;;;7304698;19;20195;-75
2023/08/20 02:39:16;;;;;;;19.00;3.67;;;19.30;99.90;;;;;;7285276;19;20198;-75
2023/08/20 02:41:42;;;;;;;14.10;3.57;;;19.30;99.90;;;;;;7284460;19;20185;-76
2023/08/20 02:44:12;;;;;;;13.17;3.50;;;19.30;99.90;;;;;;7284111;19;20182;-76
2023/08/20 02:46:38;;;;;;;12.80;3.87;;;19.30;99.90;;;;;;7284965;19;20193;-76
2023/08/20 02:49:04;;;;;;;15.77;3.70;;;19.20;99.90;;;;;;7283925;19;20193;-76
2023/08/20 02:51:29;;;;;;;15.70;3.33;;;19.20;99.90;;;;;;7284102;19;20190;-76
2023/08/20 02:53:55;;;;;;;12.30;3.40;;;19.10;99.90;;;;;;7283631;19;20252;-76
2023/08/20 02:56:21;;;;;;;11.57;3.73;;;19.10;99.90;;;;;;7300724;19;20184;-76
2023/08/20 02:58:46;;;;;;;19.27;4.17;;;19.10;99.90;;;;;;7294964;19;20206;-76
2023/08/20 03:01:24;;;;;;;20.57;4.30;;;19.00;99.90;;;;;;7283207;19;20188;-76
2023/08/20 03:03:51;;;;;;;19.67;4.10;;;19.10;99.90;;;;;;7277799;19;20744;-75
2023/08/20 03:06:20;;;;;;;16.27;3.90;;;19.10;99.90;;;;;;7305643;19;20770;-76
2023/08/20 03:08:46;;;;;;;16.13;3.90;;;19.00;99.90;;;;;;7282618;19;20192;-76
2023/08/20 03:11:11;;;;;;;13.47;3.47;;;18.90;99.90;;;;;;7282272;19;20174;-76
2023/08/20 03:13:37;;;;;;;17.73;3.90;;;18.80;99.90;;;;;;7282556;19;20192;-75
2023/08/20 03:16:03;;;;;;;18.93;3.73;;;18.70;99.90;;;;;;7281980;19;20192;-76
2023/08/20 03:18:29;;;;;;;18.57;3.90;;;18.80;99.90;;;;;;7281742;19;20246;-75
2023/08/20 03:20:56;;;;;;;16.77;3.77;;;18.60;99.90;;;;;;7283638;19;20189;-75
2023/08/20 03:23:23;;;;;;;15.13;3.50;;;18.50;99.90;;;;;;7292664;19;20260;-75
2023/08/20 03:25:49;;;;;;;14.90;3.87;;;18.50;99.90;;;;;;7303958;19;20705;-76
2023/08/20 03:28:15;;;;;;;11.67;3.50;;;18.40;99.90;;;;;;7281286;19;20186;-76
2023/08/20 03:30:41;;;;;;;13.70;3.87;;;18.40;99.90;;;;;;7281832;19;20205;-76
2023/08/20 03:33:07;;;;;;;15.63;4.03;;;18.50;99.90;;;;;;7283113;19;20192;-76
2023/08/20 03:35:34;;;;;;;14.23;3.30;;;18.60;99.90;;;;;;7282772;19;20225;-76
2023/08/20 03:38:01;;;;;;;16.87;3.70;;;18.60;99.90;;;;;;7283553;19;20218;-76
2023/08/20 03:40:28;;;;;;;14.93;3.63;;;18.70;99.90;;;;;;7281943;19;20687;-75
2023/08/20 03:42:53;;;;;;;14.33;3.83;;;18.70;99.90;;;;;;7282039;19;20194;-76
2023/08/20 03:45:19;;;;;;;19.47;4.47;;;18.70;99.90;;;;;;7303441;19;20591;-76
2023/08/20 03:47:46;;;;;;;12.97;4.07;;;18.60;99.90;;;;;;7282495;19;20977;-76
2023/08/20 03:50:12;;;;;;;14.50;4.00;;;18.60;99.90;;;;;;7281436;19;20186;-76
2023/08/20 03:52:39;;;;;;;13.87;3.97;;;18.70;99.90;;;;;;7282144;19;20256;-76
2023/08/20 03:55:05;;;;;;;14.17;4.23;;;18.50;99.90;;;;;;7281555;19;20544;-76
2023/08/20 03:57:32;;;;;;;12.93;3.60;;;18.30;99.90;;;;;;7280788;19;20692;-75
2023/08/20 03:59:58;;;;;;;12.87;3.63;;;18.20;99.90;;;;;;7280970;19;20196;-75
2023/08/20 04:02:24;;;;;;;13.77;3.97;;;18.00;99.90;;;;;;7281102;19;20189;-76
2023/08/20 04:04:49;;;;;;;14.23;3.93;;;18.00;99.90;;;;;;7302900;19;20219;-76
2023/08/20 04:07:15;;;;;;;17.30;4.23;;;18.00;99.90;;;;;;7282250;19;20184;-76
2023/08/20 04:09:42;;;;;;;16.60;4.30;;;18.10;99.90;;;;;;7280914;19;21529;-76
2023/08/20 04:12:08;;;;;;;9.37;3.93;;;18.20;99.90;;;;;;7281625;19;20188;-76
2023/08/20 04:14:36;;;;;;;13.70;3.63;;;18.20;99.90;;;;;;7281047;19;20291;-76
2023/08/20 04:17:02;;;;;;;13.20;3.83;;;18.30;99.90;;;;;;7281051;19;20672;-77
2023/08/20 04:19:28;;;;;;;10.07;3.47;;;18.30;99.90;;;;;;7280430;19;20664;-77
2023/08/20 04:21:53;;;;;;;16.00;4.13;;;18.30;99.90;;;;;;7281265;19;20189;-77
2023/08/20 04:24:19;;;;;;;13.50;3.60;;;18.20;99.90;;;;;;7302727;19;20667;-76
2023/08/20 04:26:45;;;;;;;15.13;3.80;;;18.20;99.90;;;;;;7281287;19;20192;-76
2023/08/20 04:29:13;;;;;;;12.60;4.13;;;18.30;99.90;;;;;;7279016;19;20679;-76
2023/08/20 04:31:38;;;;;;;14.30;4.00;;;18.40;99.90;;;;;;7279326;19;20196;-76
2023/08/20 04:34:08;;;;;;;13.43;3.90;;;18.40;99.90;;;;;;7281896;19;20218;-76
2023/08/20 04:36:41;;;;;;;13.40;3.90;;;18.20;99.90;;;;;;7279322;19;20664;-75
2023/08/20 04:39:07;;;;;;;16.50;4.10;;;18.10;99.90;;;;;;7281301;19;20192;-76
2023/08/20 04:41:36;;;;;;;14.13;4.00;;;17.90;99.90;;;;;;7281942;19;20193;-76
2023/08/20 04:44:03;;;;;;;19.77;4.27;;;17.90;99.90;;;;;;7281249;19;20252;-77
2023/08/20 04:46:28;;;;;;;13.63;3.43;;;17.80;99.90;;;;;;7284031;19;20187;-76
2023/08/20 04:48:55;;;;;;;14.33;3.93;;;17.80;99.90;;;;;;7283215;19;20219;-76
2023/08/20 04:51:21;;;;;;;15.20;3.73;;;17.80;99.90;;;;;;7301441;19;20631;-76
2023/08/20 04:53:47;;;;;;;14.83;3.80;;;17.90;99.90;;;;;;7296320;19;20184;-76
2023/08/20 04:56:13;;;;;;;19.87;4.20;;;18.00;99.90;;;;;;7281306;19;20196;-76
2023/08/20 04:58:39;;;;;;;14.57;3.43;;;18.10;99.90;;;;;;7278889;19;20204;-77
2023/08/20 05:01:05;;;;;;;14.97;3.63;;;18.10;99.90;;;;;;7278827;19;20965;-76
2023/08/20 05:03:33;;;;;;;15.63;4.20;;;18.20;99.90;;;;;;7278870;19;20199;-75
2023/08/20 05:05:59;;;;;;;12.63;3.37;;;18.10;99.90;;;;;;7280314;19;20248;-75
2023/08/20 05:08:24;;;;;;;15.03;3.50;;;18.00;99.90;;;;;;7279284;19;20188;-76
2023/08/20 05:10:51;;;;;;;14.90;3.13;;;18.00;99.90;;;;;;7301466;19;20184;-76
2023/08/20 05:13:17;;;;;;;14.83;4.03;;;18.10;99.90;;;;;;7281120;19;20648;-76
2023/08/20 05:15:43;;;;;;;14.27;3.53;;;18.20;99.90;;;;;;7278409;19;20374;-76
2023/08/20 05:18:11;;;;;;;13.77;3.37;;;18.30;99.90;;;;;;7277437;19;20673;-76
2023/08/20 05:20:37;;;;;;;17.93;4.17;;;18.40;99.90;;;;;;7277328;19;20767;-76
2023/08/20 05:23:03;;;;;;;12.60;3.57;;;18.60;99.90;;;;;;7275055;19;20214;-75
2023/08/20 05:25:31;;;;;;;13.20;3.33;;;18.80;99.90;;;;;;7279486;19;20193;-76
2023/08/20 05:27:57;;;;;;;13.90;2.90;;;19.60;99.90;;;;;;7279402;19;20192;-76
2023/08/20 05:30:22;;;;;;;10.47;2.93;;;20.60;99.90;;;;;;7280676;19;20187;-75
2023/08/20 05:32:48;;;;;;;11.00;3.03;;;21.50;99.90;;;;;;7302206;19;20180;-76
2023/08/20 05:35:14;;;;;;;12.57;2.53;;;22.50;99.90;;;;;;7278244;19;20205;-76
2023/08/20 05:37:42;;;;;;;12.93;2.87;;;23.20;99.90;;;;;;7276917;19;20727;-75
2023/08/20 05:40:08;;;;;;;10.60;2.90;;;24.00;99.90;;;;;;7277319;19;20187;-76
2023/08/20 05:42:34;;;;;;;11.93;2.87;;;24.50;99.90;;;;;;7278097;19;20184;-76
2023/08/20 05:45:04;;;;;;;9.33;2.53;;;25.20;99.90;;;;;;7278086;19;20193;-76
2023/08/20 05:47:31;;;;;;;14.30;2.73;;;25.30;99.90;;;;;;7280159;19;20185;-76
2023/08/20 05:49:57;;;;;;;9.27;2.30;;;25.70;99.90;;;;;;7285710;19;20200;-76
2023/08/20 05:52:23;;;;;;;10.87;2.43;;;26.60;99.90;;;;;;7287490;19;20177;-75
2023/08/20 05:54:49;;;;;;;10.87;2.43;;;27.50;99.90;;;;;;7307032;19;20176;-76
2023/08/20 05:57:14;;;;;;;10.67;2.40;;;28.20;99.90;;;;;;7284352;19;20585;-76
2023/08/20 05:59:41;;;;;;;11.35;2.25;;;29.00;99.90;;;;;;7283127;19;20313;-76
2023/08/20 06:02:07;;;;;;;11.25;2.65;;;29.60;99.90;;;;;;7285051;19;20796;-76
2023/08/20 06:04:33;;;;;;;11.45;2.60;;;30.20;99.90;;;;;;7284656;19;20569;-76
2023/08/20 06:06:59;;;;;;;11.15;2.50;;;30.30;99.90;;;;;;7284122;19;20680;-76
2023/08/20 06:09:24;;;;;;;12.43;2.33;;;30.60;99.90;;;;;;7285882;19;20191;-75
2023/08/20 06:11:51;;;;;;;10.30;2.70;;;30.90;99.90;;;;;;7308745;19;20691;-76
2023/08/20 06:14:17;;;;;;;10.60;2.40;;;30.70;99.90;;;;;;7284705;19;20199;-76
2023/08/20 06:16:42;;;;;;;11.85;2.70;;;31.00;99.90;;;;;;7286134;19;20269;-76
2023/08/20 06:19:08;;;;;;;10.48;2.65;;;31.50;99.90;;;;;;7281312;19;20188;-76
2023/08/20 06:21:34;;;;;;;9.57;2.20;;;31.10;99.90;;;;;;7285007;19;20660;-76
2023/08/20 06:24:00;;;;;;;12.40;2.20;;;30.70;99.90;;;;;;7284260;19;20208;-75
2023/08/20 06:26:26;;;;;;;8.95;2.30;;;31.00;99.90;;;;;;7285232;19;20208;-75
2023/08/20 06:28:52;;;;;;;9.77;2.40;;;31.30;99.90;;;;;;7295600;19;20220;-75
2023/08/20 06:31:18;;;;;;;13.18;2.72;;;32.00;99.90;;;;;;7302786;19;20301;-75
2023/08/20 06:33:43;;;;;;;12.38;3.15;;;32.60;99.90;;;;;;7283142;19;20177;-75
2023/08/20 06:36:09;;;;;;;12.90;2.90;;;32.70;99.90;;;;;;7284739;19;20256;-75
2023/08/20 06:38:35;;;;;;;12.38;2.63;;;31.70;99.90;;;;;;7283353;19;20189;-75
2023/08/20 06:41:00;;;;;;;10.20;2.65;;;31.00;99.90;;;;;;7285468;19;20188;-76
2023/08/20 06:43:26;;;;;;;10.90;2.70;;;30.90;99.90;;;;;;7283202;19;20276;-75
2023/08/20 06:45:52;;;;;;;13.95;2.50;;;31.60;99.90;;;;;;7296663;19;20214;-74
2023/08/20 06:48:19;;;;;;;12.05;2.13;;;32.40;99.90;;;;;;7302090;19;20185;-75
2023/08/20 06:50:45;;;;;;;10.65;2.45;;;32.70;99.90;;;;;;7284272;19;20670;-75
2023/08/20 06:53:11;;;;;;;10.02;2.40;;;32.70;99.90;;;;;;7282338;19;20750;-75
2023/08/20 06:55:36;;;;;;;13.38;2.95;;;33.30;99.90;;;;;;7283670;19;20184;-76
2023/08/20 06:58:02;;;;;;;12.30;3.17;;;33.60;99.90;;;;;;7281933;19;20185;-75
2023/08/20 07:00:28;;;;;;;11.15;2.60;;;34.10;99.60;;;;;;7281772;19;20245;-75
2023/08/20 07:02:54;;;;;;;10.13;2.85;;;34.80;98.00;;;;;;7282364;19;20196;-75
2023/08/20 07:05:20;;;;;;;13.02;2.55;;;34.80;97.00;;;;;;7305723;19;20205;-75
2023/08/20 07:07:46;;;;;;;9.20;2.50;;;36.00;94.70;;;;;;7283808;19;20212;-75
2023/08/20 07:10:12;;;;;;;10.23;2.10;;;37.10;91.30;;;;;;7283060;19;20198;-76
2023/08/20 07:12:38;;;;;;;9.05;1.88;;;38.10;87.30;;;;;;7283986;19;20196;-76
2023/08/20 07:15:05;;;;;;;9.10;2.03;;;38.50;80.00;;;;;;7281356;19;20278;-76
2023/08/20 07:17:31;;;;;;;8.82;1.83;;;39.00;78.70;;;;;;7281089;19;20189;-75
2023/08/20 07:19:57;;;;;;;5.97;1.50;;;38.10;76.40;;;;;;7280776;19;20654;-75
2023/08/20 07:22:22;;;;;;;7.18;2.00;;;38.50;73.50;;;;;;7289165;19;20192;-75
2023/08/20 07:24:48;;;;;;;10.25;2.15;;;39.30;72.00;;;;;;7302620;19;20196;-75
2023/08/20 07:27:14;;;;;;;11.73;2.00;;;39.80;70.60;;;;;;7282473;19;20199;-75
2023/08/20 07:29:44;;;;;;;8.68;1.90;;;40.30;70.50;;;;;;7283949;19;20188;-76
2023/08/20 07:32:10;;;;;;;11.75;2.08;;;40.80;69.40;;;;;;7285994;19;20197;-76
2023/08/20 07:34:35;;;;;;;7.78;1.70;;;41.20;67.50;;;;;;7284831;19;20201;-76
2023/08/20 07:37:02;;;;;;;7.40;1.67;;;41.30;64.20;;;;;;7285083;19;20181;-76
2023/08/20 07:39:28;;;;;;;9.50;2.20;;;41.50;64.00;;;;;;7285011;19;20264;-76
2023/08/20 07:41:54;;;;;;;6.65;1.70;;;42.00;63.40;;;;;;7286056;19;20640;-76
2023/08/20 07:44:19;;;;;;;9.68;2.25;;;42.90;62.20;;;;;;7307858;19;20210;-76
2023/08/20 07:46:45;;;;;;;9.23;2.13;;;43.40;59.40;;;;;;7287018;19;20181;-76
2023/08/20 07:49:11;;;;;;;9.07;1.90;;;42.70;58.70;;;;;;7287057;19;21685;-75
2023/08/20 07:51:36;;;;;;;7.05;1.52;;;41.60;59.20;;;;;;7284456;19;20542;-75
2023/08/20 07:54:02;;;;;;;6.70;1.40;;;41.70;60.00;;;;;;7282471;19;20227;-75
2023/08/20 07:56:28;;;;;;;5.78;1.30;;;42.00;58.90;;;;;;7282487;19;20205;-75
2023/08/20 07:58:54;;;;;;;8.20;1.52;;;42.70;59.20;;;;;;7282422;19;20196;-75
2023/08/20 08:01:19;;;;;;;5.20;1.27;;;42.70;57.70;;;;;;7304119;19;20180;-77
2023/08/20 08:03:45;;;;;;;6.85;1.60;;;41.80;56.70;;;;;;7282105;19;20184;-76
2023/08/20 08:06:11;;;;;;;5.88;1.05;;;42.30;56.90;;;;;;7281763;19;20200;-75
2023/08/20 08:08:41;;;;;;;4.32;1.00;;;42.20;56.10;;;;;;7281133;19;20557;-75
2023/08/20 08:11:07;;;;;;;4.85;1.10;;;42.40;56.40;;;;;;7276192;19;20221;-76
2023/08/20 08:13:33;;;;;;;6.97;1.42;;;43.60;54.70;;;;;;7282039;19;20189;-76
2023/08/20 08:15:58;;;;;;;7.93;1.52;;;44.20;53.30;;;;;;7279267;19;20192;-75
2023/08/20 08:18:24;;;;;;;5.20;1.25;;;43.80;54.30;;;;;;7278634;19;20588;-75
2023/08/20 08:20:50;;;;;;;7.53;1.65;;;43.90;52.80;;;;;;7300592;19;20204;-76
2023/08/20 08:23:16;;;;;;;5.35;1.15;;;44.80;52.90;;;;;;7277424;19;20853;-75
2023/08/20 08:25:41;;;;;;;7.75;1.40;;;43.50;53.10;;;;;;7279727;19;20281;-75
2023/08/20 08:28:07;;;;;;;5.47;1.50;;;43.50;52.00;;;;;;7281850;19;20645;-76
2023/08/20 08:30:33;;;;;;;6.18;1.30;;;44.30;52.80;;;;;;7279827;19;20181;-75
2023/08/20 08:32:59;;;;;;;5.88;1.42;;;44.00;51.80;;;;;;7278960;19;20223;-74
2023/08/20 08:35:25;;;;;;;4.35;1.20;;;43.70;51.00;;;;;;7279401;19;21051;-75
2023/08/20 08:37:50;;;;;;;5.75;1.13;;;44.30;50.90;;;;;;7302393;19;20547;-76
2023/08/20 08:40:16;;;;;;;5.72;1.20;;;44.90;50.30;;;;;;7282115;19;20640;-75
2023/08/20 08:42:47;;;;;;;4.80;1.10;;;45.60;50.80;;;;;;7279698;19;20182;-75
2023/08/20 08:45:14;;;;;;;4.32;0.82;;;45.10;50.50;;;;;;7281424;19;20196;-75
2023/08/20 08:47:39;;;;;;;4.32;0.88;;;44.80;49.60;;;;;;7267464;19;20283;-75
2023/08/20 08:50:06;;;;;;;3.88;0.90;;;44.60;49.90;;;;;;7269670;19;20993;-75
2023/08/20 08:52:32;;;;;;;4.70;1.02;;;44.80;48.90;;;;;;7272227;19;20641;-75
2023/08/20 08:54:58;;;;;;;5.63;1.15;;;45.10;49.40;;;;;;7272137;19;20193;-75
2023/08/20 08:57:23;;;;;;;7.07;1.40;;;45.30;48.80;;;;;;7273024;19;20231;-74
2023/08/20 08:59:49;;;;;;;4.63;1.05;;;45.50;49.00;;;;;;7298546;19;20184;-76
2023/08/20 09:02:18;;;;;;;6.13;1.08;;;46.40;48.40;;;;;;7275895;19;20188;-76
2023/08/20 09:04:44;;;;;;;3.28;0.93;;;45.90;48.50;;;;;;7275990;19;20231;-75
2023/08/20 09:07:14;;;;;;;2.97;0.98;;;46.50;47.80;;;;;;7276880;19;20193;-75
2023/08/20 09:09:46;;;;;;;4.75;1.05;;;45.50;48.80;;;;;;7276370;19;20196;-75
2023/08/20 09:12:19;;;;;;;5.20;1.20;;;45.80;48.20;;;;;;7276364;19;20209;-75
2023/08/20 09:14:52;;;;;;;5.43;1.20;;;45.70;48.30;;;;;;7275848;19;20192;-75
2023/08/20 09:17:19;;;;;;;4.80;1.08;;;44.40;48.30;;;;;;7278438;19;20192;-77
2023/08/20 09:19:46;;;;;;;2.97;0.90;;;45.40;48.70;;;;;;7279530;19;20196;-74
2023/08/20 09:22:15;;;;;;;5.03;1.02;;;45.50;48.70;;;;;;7281784;19;20658;-74
2023/08/20 09:24:52;;;;;;;5.03;1.20;;;45.40;49.20;;;;;;7283896;19;20313;-74
2023/08/20 09:27:18;;;;;;;4.93;1.17;;;45.90;47.90;;;;;;7287845;19;20540;-75
2023/08/20 09:29:49;;;;;;;4.47;1.05;;;46.00;47.20;;;;;;7286391;19;20203;-75
2023/08/20 09:32:23;;;;;;;3.78;1.20;;;46.50;47.60;;;;;;7283679;19;20214;-75
2023/08/20 09:34:51;;;;;;;3.30;0.90;;;47.00;46.20;;;;;;7285205;19;20184;-75
2023/08/20 09:37:19;;;;;;;4.97;1.30;;;46.30;46.10;;;;;;7286718;19;20188;-75
2023/08/20 09:39:45;;;;;;;4.50;1.10;;;45.40;47.10;;;;;;7286487;19;20223;-75
2023/08/20 09:42:12;;;;;;;4.75;1.08;;;45.50;46.50;;;;;;7284157;19;20223;-75
2023/08/20 09:44:40;;;;;;;4.05;1.20;;;45.20;46.80;;;;;;7284828;19;20177;-75
2023/08/20 09:47:08;;;;;;;4.60;1.10;;;45.00;47.40;;;;;;7286015;19;20200;-74
2023/08/20 09:49:45;;;;;;;5.53;1.35;;;44.60;47.20;;;;;;7285149;19;20185;-75
2023/08/20 09:52:20;;;;;;;4.15;1.05;;;44.00;48.20;;;;;;7284191;19;20193;-75
2023/08/20 09:55:13;;;;;;;4.43;1.13;;;43.40;49.00;;;;;;7285210;19;20188;-74
2023/08/20 09:57:40;;;;;;;4.43;1.08;;;43.60;48.80;;;;;;7178791;19;2004799;-75
2023/08/20 10:00:10;;;;;;;4.40;1.02;;;42.70;50.10;;;;;;7280637;19;20188;-75
2023/08/20 10:02:42;;;;;;;4.75;1.33;;;43.60;50.90;;;;;;7283196;19;20196;-75
2023/08/20 10:05:10;;;;;;;3.70;1.15;;;44.00;48.20;;;;;;7283953;19;20184;-75
2023/08/20 10:07:37;;;;;;;4.00;1.13;;;44.10;48.00;;;;;;7283482;19;20677;-75
2023/08/20 10:10:05;;;;;;;8.65;2.22;;;44.00;48.90;;;;;;7285332;19;20222;-76
2023/08/20 10:12:32;;;;;;;18.95;11.15;;;44.40;49.10;;;;;;7282592;19;20185;-75
2023/08/20 10:15:00;;;;;;;42.97;29.38;;;45.40;48.10;;;;;;7283581;19;20209;-75
2023/08/20 10:17:30;;;;;;;7.10;4.18;;;46.40;47.60;;;;;;7284563;19;20189;-75
2023/08/20 10:19:58;;;;;;;7.03;3.08;;;46.00;45.80;;;;;;7284666;19;20193;-75
2023/08/20 10:22:38;;;;;;;14.75;8.98;;;45.10;46.60;;;;;;7284252;19;20660;-75
2023/08/20 10:25:09;;;;;;;3.92;1.15;;;44.80;47.30;;;;;;7283696;19;20212;-75
2023/08/20 10:27:36;;;;;;;5.53;1.70;;;44.60;47.00;;;;;;7284690;19;20195;-75
2023/08/20 10:30:15;;;;;;;6.32;1.65;;;44.40;47.20;;;;;;7284035;19;20185;-75
2023/08/20 10:32:51;;;;;;;10.35;2.97;;;44.10;47.40;;;;;;7282506;19;20197;-75
2023/08/20 10:35:26;;;;;;;5.97;2.05;;;44.00;47.40;;;;;;7283698;19;20336;-74
2023/08/20 10:38:11;;;;;;;5.35;1.45;;;43.30;47.70;;;;;;7285227;19;20192;-76
2023/08/20 10:40:55;;;;;;;5.72;1.20;;;42.70;48.50;;;;;;7181626;19;2004868;-75
2023/08/20 10:43:46;;;;;;;5.05;1.52;;;42.30;48.60;;;;;;7284247;19;20263;-75
2023/08/20 10:46:18;;;;;;;3.92;1.27;;;42.10;49.10;;;;;;7182554;19;2004612;-75
2023/08/20 10:48:58;;;;;;;4.30;0.93;;;42.20;49.30;;;;;;7284704;19;20270;-75
2023/08/20 10:51:32;;;;;;;7.10;1.25;;;42.70;49.00;;;;;;7262249;19;20209;-75
2023/08/20 10:54:01;;;;;;;5.68;1.15;;;43.10;49.10;;;;;;7287230;19;20720;-75
2023/08/20 10:56:41;;;;;;;4.90;1.35;;;43.80;49.60;;;;;;7286851;19;20209;-74
2023/08/20 10:59:21;;;;;;;7.80;1.65;;;43.60;48.70;;;;;;7284702;19;20197;-75
2023/08/20 11:01:52;;;;;;;6.47;1.70;;;43.60;48.90;;;;;;7284008;19;20184;-76
2023/08/20 11:04:20;;;;;;;4.63;1.30;;;44.00;48.80;;;;;;7281957;19;20189;-76
2023/08/20 11:06:49;;;;;;;4.45;1.10;;;43.60;49.30;;;;;;7284272;19;20217;-76
2023/08/20 11:09:15;;;;;;;5.53;1.42;;;44.00;48.70;;;;;;7283243;19;20185;-76
2023/08/20 11:11:41;;;;;;;3.65;1.05;;;44.40;47.80;;;;;;7283062;19;20198;-76
2023/08/20 11:14:15;;;;;;;4.32;1.20;;;45.20;49.40;;;;;;7283255;19;20200;-76
2023/08/20 11:16:42;;;;;;;6.40;2.15;;;45.80;47.30;;;;;;7282001;19;20189;-76
2023/08/20 11:19:08;;;;;;;3.65;0.98;;;45.90;47.80;;;;;;7283573;19;20193;-76
2023/08/20 11:21:35;;;;;;;4.13;1.40;;;45.30;46.90;;;;;;7281467;19;20206;-76
2023/08/20 11:24:01;;;;;;;4.95;1.20;;;45.00;47.90;;;;;;7280426;19;20256;-75
2023/08/20 11:26:27;;;;;;;5.68;1.67;;;44.80;48.20;;;;;;7284742;19;20196;-75
2023/08/20 11:28:53;;;;;;;5.50;2.00;;;42.10;48.50;;;;;;7290250;19;20181;-75
2023/08/20 11:31:19;;;;;;;4.45;1.80;;;41.40;50.00;;;;;;7303416;19;20633;-75
2023/08/20 11:33:48;;;;;;;4.45;1.00;;;42.30;50.60;;;;;;7282516;19;20192;-75
2023/08/20 11:36:19;;;;;;;4.43;1.27;;;42.60;49.30;;;;;;7279744;19;20188;-75
2023/08/20 11:38:53;;;;;;;4.90;1.13;;;43.10;50.10;;;;;;7284350;19;20219;-76
2023/08/20 11:41:20;;;;;;;5.88;1.23;;;43.10;48.60;;;;;;7282611;19;20212;-75
2023/08/20 11:43:47;;;;;;;3.60;0.95;;;42.00;48.10;;;;;;7281561;19;20209;-76
2023/08/20 11:46:16;;;;;;;4.90;1.10;;;41.90;48.50;;;;;;7279523;19;20180;-75
2023/08/20 11:49:05;;;;;;;4.65;1.08;;;42.00;49.40;;;;;;7280934;19;20213;-75
2023/08/20 11:51:48;;;;;;;5.30;1.10;;;41.00;49.30;;;;;;7180641;19;2004596;-75
2023/08/20 11:54:15;;;;;;;3.55;0.90;;;40.60;50.10;;;;;;7284277;19;20174;-75
2023/08/20 11:56:51;;;;;;;4.30;0.98;;;40.20;50.20;;;;;;7282781;19;20184;-75
2023/08/20 11:59:19;;;;;;;4.13;1.05;;;40.50;50.30;;;;;;7282532;19;20181;-75
2023/08/20 12:01:52;;;;;;;4.20;1.13;;;40.10;51.50;;;;;;7282178;19;20191;-76
2023/08/20 12:04:18;;;;;;;5.82;1.33;;;40.70;50.90;;;;;;7282206;19;20659;-75
2023/08/20 12:06:44;;;;;;;5.15;1.58;;;40.90;50.80;;;;;;7280224;19;20676;-75
2023/08/20 12:09:21;;;;;;;4.80;1.10;;;41.20;50.70;;;;;;7281174;19;20185;-76
2023/08/20 12:11:55;;;;;;;5.90;1.30;;;41.50;51.10;;;;;;7282431;19;20187;-75
2023/08/20 12:14:22;;;;;;;3.40;0.98;;;42.00;51.10;;;;;;7282502;19;20176;-75
2023/08/20 12:16:48;;;;;;;3.08;1.10;;;41.10;50.80;;;;;;7279840;19;20185;-75
2023/08/20 12:19:14;;;;;;;4.68;1.02;;;41.30;51.20;;;;;;7279823;19;20301;-75
2023/08/20 12:21:43;;;;;;;7.72;2.65;;;40.80;52.00;;;;;;7280381;19;20652;-76
2023/08/20 12:24:09;;;;;;;9.80;3.72;;;41.50;52.50;;;;;;7280999;19;20185;-75
2023/08/20 12:26:36;;;;;;;5.18;2.03;;;41.70;51.60;;;;;;7280049;19;20595;-75
2023/08/20 12:29:01;;;;;;;7.50;2.30;;;40.50;51.10;;;;;;7280479;19;20188;-75
2023/08/20 12:31:27;;;;;;;13.32;7.25;;;40.40;52.20;;;;;;7280640;19;20644;-75
2023/08/20 12:33:53;;;;;;;4.45;1.40;;;40.00;51.90;;;;;;7290234;19;20548;-75
2023/08/20 12:36:19;;;;;;;6.57;1.50;;;39.10;52.20;;;;;;7298901;19;20219;-75
2023/08/20 12:38:44;;;;;;;6.78;1.60;;;38.40;53.60;;;;;;7280466;19;20193;-75
2023/08/20 12:41:10;;;;;;;6.63;1.70;;;37.30;55.40;;;;;;7280720;19;20192;-75
2023/08/20 12:43:37;;;;;;;8.35;2.00;;;36.80;56.90;;;;;;7279442;19;20180;-75